Time;durP1;ratioP1;P1;durP2;ratioP2;P2;SDS_P1;SDS_P2;PMS_P1;PMS_P2;Temp;Humidity;BMP_temperature;BMP_pressure;BME280_temperature;BME280_humidity;BME280_pressure;Samples;Min_cycle;Max_cycle;Signal;HPM_P1;HPM_P2
2022/05/12 00:01:41;;;;;;;4.90;1.48;;;;;;;13.94;69.67;101323.63;5081271;28;20029;-73
2022/05/12 00:04:06;;;;;;;6.88;1.85;;;;;;;13.88;69.48;101334.28;5082719;28;20028;-73
2022/05/12 00:06:32;;;;;;;4.97;1.85;;;;;;;13.80;70.16;101327.50;5093284;28;20048;-73
2022/05/12 00:08:57;;;;;;;8.90;1.70;;;;;;;13.76;70.38;101341.56;5094107;28;20038;-73
2022/05/12 00:11:22;;;;;;;5.20;1.60;;;;;;;13.67;70.40;101341.84;5093124;28;20475;-73
2022/05/12 00:13:47;;;;;;;4.65;1.40;;;;;;;13.64;70.91;101349.81;5093574;28;20028;-73
2022/05/12 00:16:13;;;;;;;6.15;2.20;;;;;;;13.51;70.55;101345.81;5094075;28;20035;-73
2022/05/12 00:18:38;;;;;;;5.53;1.63;;;;;;;13.50;71.08;101347.53;5092658;28;20418;-73
2022/05/12 00:21:03;;;;;;;4.25;1.65;;;;;;;13.49;71.33;101342.34;5094374;28;20028;-73
2022/05/12 00:23:29;;;;;;;6.80;1.60;;;;;;;13.47;71.33;101344.16;5091348;28;20036;-73
2022/05/12 00:25:55;;;;;;;5.97;1.50;;;;;;;13.34;70.73;101344.50;5087539;28;20028;-73
2022/05/12 00:28:23;;;;;;;5.05;1.70;;;;;;;13.24;71.14;101353.50;5089705;28;20104;-73
2022/05/12 00:30:50;;;;;;;4.60;1.73;;;;;;;13.20;71.59;101357.06;5091522;28;20105;-73
2022/05/12 00:33:17;;;;;;;8.00;1.73;;;;;;;13.22;71.45;101355.25;5091894;28;20480;-73
2022/05/12 00:35:44;;;;;;;3.65;1.80;;;;;;;13.14;71.71;101359.81;5080898;28;20449;-73
2022/05/12 00:38:11;;;;;;;6.20;1.63;;;;;;;13.10;72.60;101363.44;5073686;28;20056;-73
2022/05/12 00:40:38;;;;;;;3.58;1.58;;;;;;;12.96;72.15;101368.16;5073756;28;20039;-73
2022/05/12 00:43:08;;;;;;;6.95;2.05;;;;;;;12.92;72.82;101372.63;5082176;28;20028;-73
2022/05/12 00:45:35;;;;;;;4.60;1.50;;;;;;;12.76;73.07;101381.75;5076241;28;20101;-73
2022/05/12 00:48:02;;;;;;;4.32;1.60;;;;;;;12.75;73.78;101380.00;5093914;28;20070;-73
2022/05/12 00:50:32;;;;;;;2.92;1.15;;;;;;;12.72;73.82;101370.50;5092654;28;20046;-73
2022/05/12 00:53:00;;;;;;;2.60;1.42;;;;;;;12.68;73.78;101381.91;5092142;28;20111;-73
2022/05/12 00:55:33;;;;;;;4.55;1.60;;;;;;;12.56;74.00;101379.59;5092572;28;20107;-74
2022/05/12 00:58:00;;;;;;;3.63;1.70;;;;;;;12.53;74.33;101390.97;5093289;28;20063;-73
2022/05/12 01:00:25;;;;;;;5.55;1.95;;;;;;;12.44;74.67;101396.41;5091991;28;20066;-73
2022/05/12 01:02:56;;;;;;;4.07;2.03;;;;;;;12.36;75.28;101388.75;5092487;28;20511;-73
2022/05/12 01:05:23;;;;;;;6.90;2.17;;;;;;;12.16;75.59;101399.63;5091103;28;20035;-73
2022/05/12 01:07:51;;;;;;;4.95;1.58;;;;;;;12.09;76.07;101399.78;5091879;28;20028;-73
2022/05/12 01:10:17;;;;;;;3.90;1.60;;;;;;;12.00;76.66;101400.84;5093325;28;20024;-73
2022/05/12 01:12:45;;;;;;;5.68;1.88;;;;;;;12.01;77.54;101406.94;5091353;28;20032;-74
2022/05/12 01:15:12;;;;;;;5.95;2.25;;;;;;;11.98;77.73;101409.59;5075976;28;20020;-73
2022/05/12 01:17:37;;;;;;;5.85;1.80;;;;;;;11.85;77.70;101412.44;5092099;28;20024;-73
2022/05/12 01:20:04;;;;;;;5.70;2.05;;;;;;;11.75;78.04;101405.66;5091861;28;20073;-73
2022/05/12 01:22:39;;;;;;;7.57;1.85;;;;;;;11.83;77.89;101413.34;5093254;28;20077;-73
2022/05/12 01:25:15;;;;;;;5.68;2.10;;;;;;;11.82;77.72;101417.69;5088730;28;20107;-73
2022/05/12 01:27:44;;;;;;;5.97;2.13;;;;;;;11.76;78.61;101420.44;5087752;28;20090;-73
2022/05/12 01:30:12;;;;;;;8.90;2.28;;;;;;;11.65;79.06;101417.16;5072830;28;20431;-73
2022/05/12 01:32:38;;;;;;;8.32;2.17;;;;;;;11.65;79.32;101423.25;5071879;28;20020;-73
2022/05/12 01:35:04;;;;;;;8.38;2.55;;;;;;;11.62;79.45;101427.66;5072929;28;20086;-73
2022/05/12 01:37:30;;;;;;;7.53;2.60;;;;;;;11.58;79.83;101429.47;5091763;28;20088;-73
2022/05/12 01:39:56;;;;;;;9.90;2.60;;;;;;;11.44;80.23;101436.69;5079436;28;20032;-73
2022/05/12 01:42:21;;;;;;;7.05;2.35;;;;;;;11.41;80.92;101442.84;5084188;28;20478;-73
2022/05/12 01:44:47;;;;;;;10.65;2.42;;;;;;;11.33;80.92;101447.31;5092560;28;20040;-73
2022/05/12 01:47:13;;;;;;;8.65;2.38;;;;;;;11.25;81.11;101444.00;5090022;28;20031;-73
2022/05/12 01:49:39;;;;;;;6.30;2.47;;;;;;;11.27;81.40;101443.94;5091963;28;20383;-73
2022/05/12 01:52:05;;;;;;;12.18;2.95;;;;;;;11.28;80.93;101443.94;5089385;28;20039;-73
2022/05/12 01:54:30;;;;;;;11.98;2.63;;;;;;;11.14;81.21;101451.13;5084827;28;20079;-73
2022/05/12 01:56:56;;;;;;;9.93;2.72;;;;;;;11.04;81.69;101446.94;5073346;28;20098;-73
2022/05/12 01:59:23;;;;;;;6.90;2.50;;;;;;;10.92;82.29;101445.38;5074106;28;20052;-73
2022/05/12 02:01:49;;;;;;;6.78;2.30;;;;;;;10.95;82.09;101459.25;5091582;28;20463;-73
2022/05/12 02:04:15;;;;;;;8.13;2.50;;;;;;;10.88;82.06;101461.94;5092310;28;20077;-73
2022/05/12 02:06:41;;;;;;;10.07;3.15;;;;;;;10.84;82.21;101471.56;5089873;28;20032;-73
2022/05/12 02:09:07;;;;;;;7.43;2.30;;;;;;;10.75;82.56;101471.69;5089661;28;20027;-73
2022/05/12 02:11:32;;;;;;;9.25;3.28;;;;;;;10.65;82.55;101470.09;5091108;28;20119;-73
2022/05/12 02:13:58;;;;;;;6.57;2.60;;;;;;;10.65;82.85;101476.19;5092635;28;20067;-73
2022/05/12 02:16:25;;;;;;;8.68;3.15;;;;;;;10.72;82.71;101480.41;5090171;28;20020;-73
2022/05/12 02:18:52;;;;;;;7.45;2.78;;;;;;;10.71;82.95;101481.31;5092235;28;20114;-73
2022/05/12 02:21:17;;;;;;;8.77;2.95;;;;;;;10.62;83.12;101491.88;5091295;28;20464;-73
2022/05/12 02:23:43;;;;;;;6.88;2.55;;;;;;;10.57;83.10;101492.84;5090872;28;20028;-73
2022/05/12 02:26:08;;;;;;;8.35;2.40;;;;;;;10.50;83.25;101492.91;5082494;28;20032;-73
2022/05/12 02:28:34;;;;;;;8.75;2.50;;;;;;;10.47;84.05;101494.69;5075873;28;20174;-73
2022/05/12 02:30:59;;;;;;;10.40;2.88;;;;;;;10.43;84.35;101491.25;5071952;28;20028;-73
2022/05/12 02:33:25;;;;;;;11.80;2.70;;;;;;;10.36;84.56;101489.59;5071837;28;20033;-73
2022/05/12 02:35:50;;;;;;;6.90;2.72;;;;;;;10.42;84.23;101499.09;5078092;28;20024;-73
2022/05/12 02:38:16;;;;;;;9.07;2.58;;;;;;;10.40;84.15;101501.72;5091891;28;20035;-73
2022/05/12 02:40:41;;;;;;;6.13;3.35;;;;;;;10.39;84.10;101504.34;5092094;28;20380;-73
2022/05/12 02:43:23;;;;;;;10.65;3.38;;;;;;;10.34;84.70;101496.59;5090160;28;20040;-73
2022/05/12 02:45:50;;;;;;;9.52;3.28;;;;;;;10.26;84.79;101514.91;5090764;28;20441;-73
2022/05/12 02:48:17;;;;;;;6.78;3.10;;;;;;;10.23;85.17;101508.81;5078264;28;20032;-73
2022/05/12 02:50:42;;;;;;;9.40;3.30;;;;;;;10.21;85.56;101515.81;5070921;28;20040;-73
2022/05/12 02:53:07;;;;;;;8.30;3.35;;;;;;;10.20;85.82;101517.56;5071796;28;20028;-73
2022/05/12 02:55:33;;;;;;;10.88;3.50;;;;;;;10.16;85.80;101517.59;5077237;28;20028;-73
2022/05/12 02:57:58;;;;;;;10.68;3.58;;;;;;;10.19;85.63;101517.56;5091341;28;20418;-73
2022/05/12 03:00:23;;;;;;;9.45;3.63;;;;;;;10.16;85.27;101520.19;5092171;28;20062;-73
2022/05/12 03:02:48;;;;;;;10.75;3.40;;;;;;;10.11;85.82;101515.06;5093780;28;20024;-73
2022/05/12 03:05:14;;;;;;;11.48;4.28;;;;;;;10.04;86.20;101516.00;5091836;28;20019;-73
2022/05/12 03:07:39;;;;;;;9.73;3.78;;;;;;;10.02;86.18;101518.59;5094685;28;20024;-73
2022/05/12 03:10:05;;;;;;;13.50;4.13;;;;;;;10.03;86.41;101514.25;5096157;28;20024;-73
2022/05/12 03:12:32;;;;;;;13.02;4.43;;;;;;;10.01;86.79;101529.91;5094639;28;20472;-73
2022/05/12 03:14:57;;;;;;;10.90;4.00;;;;;;;9.93;87.27;101526.50;5094636;28;20459;-73
2022/05/12 03:17:22;;;;;;;10.23;4.30;;;;;;;9.93;87.57;101534.31;5093313;28;20025;-73
2022/05/12 03:19:48;;;;;;;10.48;4.40;;;;;;;9.93;87.90;101542.13;5094972;28;20054;-73
2022/05/12 03:22:13;;;;;;;10.13;4.65;;;;;;;9.94;88.14;101533.47;5095434;28;20032;-73
2022/05/12 03:24:39;;;;;;;12.85;4.70;;;;;;;9.91;88.17;101540.41;5094770;28;20487;-73
2022/05/12 03:27:04;;;;;;;12.02;4.38;;;;;;;9.88;88.43;101540.47;5093939;28;20024;-73
2022/05/12 03:29:32;;;;;;;13.57;5.25;;;;;;;9.78;88.64;101529.28;5093560;28;20468;-73
2022/05/12 03:31:57;;;;;;;12.77;4.95;;;;;;;9.84;89.04;101542.22;5094539;28;20494;-73
2022/05/12 03:34:22;;;;;;;11.43;5.28;;;;;;;9.81;89.17;101540.53;5095234;28;20020;-73
2022/05/12 03:36:48;;;;;;;15.15;5.72;;;;;;;9.79;89.62;101546.63;5094121;28;20040;-73
2022/05/12 03:39:13;;;;;;;11.20;5.43;;;;;;;9.77;89.65;101550.97;5093331;28;20034;-73
2022/05/12 03:41:38;;;;;;;13.52;6.00;;;;;;;9.81;89.91;101550.09;5095053;28;20028;-73
2022/05/12 03:46:47;;;;;;;15.73;6.40;;;;;;;9.83;90.10;101556.97;5093117;28;20490;-73
2022/05/12 03:49:13;;;;;;;18.55;6.90;;;;;;;9.86;90.13;101561.31;5089162;28;20036;-73
2022/05/12 03:51:39;;;;;;;17.42;7.50;;;;;;;9.84;90.57;101568.25;5092867;28;20086;-73
2022/05/12 03:54:04;;;;;;;21.40;7.93;;;;;;;9.92;90.79;101568.22;5094523;28;20089;-73
2022/05/12 03:56:32;;;;;;;19.92;7.65;;;;;;;9.92;90.98;101566.47;5093796;28;20028;-73
2022/05/12 03:58:57;;;;;;;19.48;8.80;;;;;;;9.89;91.40;101565.63;5092640;28;20055;-73
2022/05/12 04:01:22;;;;;;;19.67;8.50;;;;;;;9.92;91.34;101581.22;5092740;28;20036;-73
2022/05/12 04:03:48;;;;;;;16.20;8.02;;;;;;;9.88;91.51;101577.78;5094452;28;20081;-73
2022/05/12 04:06:14;;;;;;;19.65;8.70;;;;;;;9.92;91.98;101586.44;5093580;28;20460;-73
2022/05/12 04:08:39;;;;;;;22.60;9.95;;;;;;;9.92;92.47;101576.88;5092440;28;20029;-73
2022/05/12 04:11:07;;;;;;;19.40;10.63;;;;;;;9.89;93.02;101586.47;5093285;28;20079;-73
2022/05/12 04:13:33;;;;;;;23.00;9.82;;;;;;;9.94;92.80;101592.47;5094212;28;20042;-73
2022/05/12 04:15:58;;;;;;;22.38;11.15;;;;;;;10.01;93.17;101602.00;5093923;28;20484;-73
2022/05/12 04:18:23;;;;;;;29.30;11.27;;;;;;;10.03;93.04;101601.09;5092967;28;20491;-73
2022/05/12 04:20:49;;;;;;;22.08;10.75;;;;;;;10.05;93.20;101607.16;5092450;28;20035;-72
2022/05/12 04:23:14;;;;;;;23.40;11.57;;;;;;;10.09;93.37;101603.63;5094519;28;20032;-72
2022/05/12 04:25:39;;;;;;;21.33;11.43;;;;;;;10.12;93.25;101607.09;5094087;28;20529;-73
2022/05/12 04:28:05;;;;;;;26.35;10.80;;;;;;;10.13;93.53;101617.50;5093665;28;20032;-73
2022/05/12 04:30:31;;;;;;;25.25;12.32;;;;;;;10.09;93.46;101616.66;5090167;28;20142;-73
2022/05/12 04:35:09;;;;;;;25.17;11.55;;;;;;;10.21;93.21;101605.28;5093341;28;20536;-73
2022/05/12 04:35:42;;;;;;;22.85;11.65;;;;;;;10.28;93.22;101616.53;5093274;28;20100;-73
2022/05/12 04:38:08;;;;;;;26.48;11.38;;;;;;;10.32;93.52;101618.22;5094200;28;20483;-73
2022/05/12 04:40:33;;;;;;;21.27;10.98;;;;;;;10.37;93.44;101611.22;5076672;28;20135;-73
2022/05/12 04:42:59;;;;;;;25.38;12.35;;;;;;;10.43;93.92;101626.81;5081104;28;20391;-73
2022/05/12 04:45:27;;;;;;;23.60;11.95;;;;;;;10.46;93.82;101632.00;5093706;28;20028;-73
2022/05/12 04:47:52;;;;;;;28.05;12.13;;;;;;;10.49;93.88;101637.16;5093959;28;20032;-73
2022/05/12 04:50:21;;;;;;;23.05;12.18;;;;;;;10.55;93.78;101631.88;5074455;28;20029;-73
2022/05/12 04:52:47;;;;;;;28.08;13.80;;;;;;;10.59;94.12;101629.22;5077039;28;20016;-73
2022/05/12 04:55:14;;;;;;;27.63;12.82;;;;;;;10.64;94.01;101630.06;5087699;28;20024;-73
2022/05/12 04:57:41;;;;;;;25.88;13.00;;;;;;;10.71;94.20;101634.31;5092815;28;20020;-72
2022/05/12 05:00:10;;;;;;;27.90;13.35;;;;;;;10.74;94.25;101627.31;5092397;28;20131;-73
2022/05/12 05:02:36;;;;;;;27.05;13.57;;;;;;;10.82;94.02;101637.66;5084969;28;20024;-73
2022/05/12 05:05:04;;;;;;;27.17;14.05;;;;;;;10.90;94.26;101642.81;5091805;28;20064;-73
2022/05/12 05:07:29;;;;;;;30.70;14.65;;;;;;;10.98;94.37;101651.38;5093551;28;20040;-73
2022/05/12 05:09:55;;;;;;;31.13;14.38;;;;;;;11.07;94.07;101653.03;5091914;28;20368;-73
2022/05/12 05:12:20;;;;;;;26.73;14.88;;;;;;;11.14;94.19;101659.88;5092709;28;20063;-73
2022/05/12 05:14:45;;;;;;;31.23;15.80;;;;;;;11.18;94.00;101653.75;5090855;28;20046;-73
2022/05/12 05:17:11;;;;;;;30.58;15.38;;;;;;;11.28;94.08;101670.16;5092597;28;20028;-73
2022/05/12 05:19:36;;;;;;;34.88;16.83;;;;;;;11.35;93.86;101662.22;5092140;28;20081;-73
2022/05/12 05:22:02;;;;;;;34.22;16.35;;;;;;;11.42;93.66;101666.47;5093313;28;20070;-73
2022/05/12 05:24:27;;;;;;;34.92;15.85;;;;;;;11.46;93.36;101665.53;5086530;28;20032;-73
2022/05/12 05:26:52;;;;;;;30.50;16.23;;;;;;;11.50;93.69;101658.53;5092206;28;20051;-73
2022/05/12 05:29:18;;;;;;;29.23;15.52;;;;;;;11.58;94.06;101672.34;5092836;28;20031;-73
2022/05/12 05:31:43;;;;;;;34.38;17.73;;;;;;;11.63;93.95;101680.09;5091975;28;20376;-73
2022/05/12 05:34:09;;;;;;;30.35;16.30;;;;;;;11.72;93.72;101686.06;5090223;28;20067;-73
2022/05/12 05:36:36;;;;;;;29.70;16.65;;;;;;;11.82;93.73;101688.53;5092160;28;20148;-73
2022/05/12 05:39:01;;;;;;;38.97;18.50;;;;;;;11.86;93.57;101690.25;5092410;28;20024;-73
2022/05/12 05:41:26;;;;;;;31.13;17.50;;;;;;;11.93;93.00;101698.00;5092766;28;20566;-73
2022/05/12 05:43:51;;;;;;;37.33;18.48;;;;;;;11.93;93.24;101692.75;5091928;28;20035;-73
2022/05/12 05:46:17;;;;;;;33.58;17.50;;;;;;;12.03;93.25;101709.13;5089883;28;20028;-73
2022/05/12 05:48:50;;;;;;;31.48;17.75;;;;;;;12.04;93.59;101710.88;5092495;28;20016;-73
2022/05/12 05:53:59;;;;;;;34.95;19.77;;;;;;;12.22;93.77;101724.53;5089587;28;20043;-73
2022/05/12 05:56:24;;;;;;;37.53;19.70;;;;;;;12.28;93.32;101721.81;5072169;28;20432;-73
2022/05/12 05:58:49;;;;;;;39.65;19.55;;;;;;;12.31;93.48;101733.09;5081765;28;20481;-73
2022/05/12 06:01:15;;;;;;;36.15;19.08;;;;;;;12.39;93.20;101723.38;5090951;28;20016;-73
2022/05/12 06:03:40;;;;;;;34.45;20.02;;;;;;;12.45;93.44;101740.69;5092481;28;20089;-73
2022/05/12 06:06:06;;;;;;;32.58;19.30;;;;;;;12.52;92.10;101744.06;5089800;28;20039;-73
2022/05/12 06:08:31;;;;;;;36.03;19.08;;;;;;;12.56;92.94;101746.63;5090433;28;20035;-73
2022/05/12 06:11:03;;;;;;;35.97;20.35;;;;;;;12.65;92.18;101751.72;5092283;28;20027;-73
2022/05/12 06:13:28;;;;;;;38.20;20.05;;;;;;;12.74;92.18;101755.88;5091454;28;20483;-73
2022/05/12 06:15:53;;;;;;;36.47;20.08;;;;;;;12.76;91.31;101750.66;5085588;28;20031;-73
2022/05/12 06:18:18;;;;;;;30.90;18.98;;;;;;;12.84;91.61;101748.75;5071942;28;20494;-73
2022/05/12 06:20:46;;;;;;;37.40;19.27;;;;;;;12.95;91.42;101749.41;5071125;28;20024;-73
2022/05/12 06:23:12;;;;;;;34.33;20.33;;;;;;;13.05;91.06;101760.56;5078320;28;20460;-73
2022/05/12 06:25:38;;;;;;;33.78;20.13;;;;;;;12.99;90.18;101755.47;5075209;28;20024;-73
2022/05/12 06:28:04;;;;;;;40.72;20.48;;;;;;;13.08;90.26;101760.53;5074337;28;20027;-73
2022/05/12 06:30:29;;;;;;;35.63;20.20;;;;;;;13.19;89.96;101758.53;5080983;28;20024;-73
2022/05/12 06:32:56;;;;;;;38.63;22.02;;;;;;;13.44;89.21;101763.31;5072050;28;20067;-73
2022/05/12 06:35:23;;;;;;;33.65;20.60;;;;;;;13.52;89.54;101769.25;5074355;28;20086;-73
2022/05/12 06:37:48;;;;;;;34.97;21.02;;;;;;;13.53;89.05;101766.59;5070072;28;20469;-73
2022/05/12 06:40:14;;;;;;;36.85;20.50;;;;;;;13.58;87.02;101769.13;5070511;28;20478;-73
2022/05/12 06:42:41;;;;;;;34.17;19.63;;;;;;;13.56;86.18;101774.41;5071054;28;20040;-75
2022/05/12 06:45:08;;;;;;;32.35;19.20;;;;;;;13.62;86.99;101783.88;5071630;28;20020;-74
2022/05/12 06:47:33;;;;;;;31.35;19.73;;;;;;;13.67;87.01;101787.28;5087246;28;20028;-74
2022/05/12 06:50:01;;;;;;;29.10;17.92;;;;;;;13.65;85.18;101783.81;5079458;28;20047;-74
2022/05/12 06:52:27;;;;;;;29.73;18.02;;;;;;;13.92;84.71;101786.75;5071037;28;20032;-74
2022/05/12 06:54:52;;;;;;;31.65;18.75;;;;;;;14.20;83.13;101786.97;5078085;28;20032;-74
2022/05/12 06:57:22;;;;;;;29.05;18.55;;;;;;;14.43;81.21;101794.31;5088649;28;20040;-74
2022/05/12 06:59:48;;;;;;;31.83;18.52;;;;;;;14.33;80.31;101795.44;5083731;28;20044;-74
2022/05/12 07:02:13;;;;;;;32.80;19.00;;;;;;;14.40;79.93;101794.38;5071334;28;20036;-75
2022/05/12 07:04:39;;;;;;;32.40;18.60;;;;;;;14.49;79.81;101797.63;5077858;28;20033;-75
2022/05/12 07:07:05;;;;;;;32.08;17.35;;;;;;;14.65;77.93;101798.16;5083407;28;20472;-75
2022/05/12 07:09:31;;;;;;;27.25;17.48;;;;;;;14.97;77.15;101810.44;5070112;28;20055;-75
2022/05/12 07:11:56;;;;;;;23.92;17.55;;;;;;;15.20;75.44;101793.19;5071470;28;20024;-76
2022/05/12 07:14:22;;;;;;;24.10;16.65;;;;;;;15.38;75.46;101786.56;5070887;28;20039;-75
2022/05/12 07:16:48;;;;;;;25.08;17.13;;;;;;;15.40;75.29;101797.88;5073095;28;20028;-75
2022/05/12 07:19:15;;;;;;;25.10;15.50;;;;;;;15.39;74.52;101799.66;5091539;28;20028;-76
2022/05/12 07:27:14;;;;;;;23.40;16.02;;;;;;;14.95;71.93;101812.25;5078334;28;20047;-75
2022/05/12 07:29:43;;;;;;;20.92;15.43;;;;;;;14.70;74.94;101819.03;5089434;28;20020;-75
2022/05/12 07:32:08;;;;;;;22.75;15.35;;;;;;;14.77;74.70;101817.09;5089750;28;20476;-75
2022/05/12 07:34:34;;;;;;;23.95;15.88;;;;;;;15.08;74.59;101815.41;5086518;28;20040;-75
2022/05/12 07:36:59;;;;;;;26.75;15.52;;;;;;;15.44;74.29;101813.53;5089293;28;20051;-76
2022/05/12 07:39:28;;;;;;;26.60;15.75;;;;;;;15.62;71.13;101806.88;5090879;28;20353;-76
2022/05/12 07:41:56;;;;;;;27.45;16.17;;;;;;;15.63;69.41;101823.50;5086963;28;20435;-76
2022/05/12 07:44:22;;;;;;;20.98;15.43;;;;;;;15.24;69.28;101831.63;5090870;28;20043;-75
2022/05/12 07:46:49;;;;;;;22.77;15.85;;;;;;;15.14;70.33;101833.63;5091481;28;20028;-75
2022/05/12 07:49:15;;;;;;;31.75;26.63;;;;;;;15.51;69.39;101819.47;5074954;28;20035;-75
2022/05/12 07:51:40;;;;;;;17.30;14.10;;;;;;;15.82;68.23;101821.25;5075863;28;20032;-76
2022/05/12 07:54:05;;;;;;;19.40;14.40;;;;;;;16.07;64.32;101834.53;5086298;28;20115;-76
2022/05/12 07:56:31;;;;;;;23.27;14.60;;;;;;;16.35;64.99;101824.88;5094511;28;20070;-76
2022/05/12 07:58:58;;;;;;;21.40;16.23;;;;;;;16.24;64.20;101826.09;5091042;28;20044;-75
2022/05/12 08:01:43;;;;;;;28.10;16.73;;;;;;;15.86;67.21;101820.25;5092779;28;20048;-76
2022/05/12 08:04:08;;;;;;;24.50;15.35;;;;;;;15.54;67.52;101835.16;5074852;28;20029;-76
2022/05/12 08:06:34;;;;;;;17.98;12.45;;;;;;;15.58;65.28;101835.94;5073415;28;20123;-75
2022/05/12 08:08:59;;;;;;;16.88;13.05;;;;;;;15.71;65.59;101828.59;5090634;28;20024;-76
2022/05/12 08:11:24;;;;;;;21.40;14.95;;;;;;;15.96;63.76;101842.75;5089707;28;20036;-76
2022/05/12 08:13:50;;;;;;;22.40;15.52;;;;;;;16.35;63.84;101838.03;5086419;28;20036;-76
2022/05/12 08:16:18;;;;;;;22.65;16.17;;;;;;;16.43;63.17;101832.50;5092170;28;20085;-76
2022/05/12 08:18:45;;;;;;;24.55;14.65;;;;;;;16.14;64.99;101846.56;5094249;28;20085;-76
2022/05/12 08:21:12;;;;;;;19.02;13.57;;;;;;;16.01;64.29;101851.34;5082351;28;20033;-76
2022/05/12 08:23:37;;;;;;;13.45;10.80;;;;;;;16.17;62.19;101845.63;5074122;28;20406;-76
2022/05/12 08:26:03;;;;;;;18.17;10.70;;;;;;;16.23;60.82;101846.28;5078747;28;20472;-76
2022/05/12 08:28:28;;;;;;;17.52;11.48;;;;;;;16.13;60.01;101848.34;5073334;28;20032;-76
2022/05/12 08:30:54;;;;;;;13.65;9.60;;;;;;;15.94;60.03;101852.44;5074049;28;20376;-76
2022/05/12 08:33:20;;;;;;;10.88;7.93;;;;;;;16.11;58.02;101852.78;5074086;28;20106;-75
2022/05/12 08:35:46;;;;;;;14.25;8.52;;;;;;;16.35;57.29;101840.66;5073710;28;20071;-76
2022/05/12 08:38:13;;;;;;;15.52;8.52;;;;;;;16.54;57.03;101834.78;5093893;28;20032;-75
2022/05/12 08:41:12;;;;;;;15.45;9.48;;;;;;;16.73;55.77;101845.56;5094022;28;20107;-75
2022/05/12 08:43:43;;;;;;;17.55;9.82;;;;;;;16.57;56.29;101847.84;5092739;28;20541;-76
2022/05/12 08:46:12;;;;;;;17.55;10.23;;;;;;;16.39;56.41;101851.94;5094148;28;20568;-75
2022/05/12 08:48:41;;;;;;;15.18;9.90;;;;;;;16.13;57.72;101848.34;5093153;28;20064;-76
2022/05/12 08:51:08;;;;;;;17.00;9.63;;;;;;;15.93;57.03;101852.50;5093965;28;20112;-76
2022/05/12 08:53:46;;;;;;;11.65;9.00;;;;;;;16.18;58.89;101849.97;5078724;28;20033;-75
2022/05/12 08:56:12;;;;;;;18.52;9.15;;;;;;;16.87;55.40;101851.25;5084386;28;20107;-75
2022/05/12 08:58:40;;;;;;;13.90;8.63;;;;;;;17.50;54.23;101844.66;5091409;28;20580;-75
2022/05/12 09:01:23;;;;;;;15.02;9.73;;;;;;;18.01;53.40;101843.63;5093906;28;20486;-75
2022/05/12 09:04:13;;;;;;;14.93;9.60;;;;;;;18.17;52.27;101853.59;5087446;28;21695;-75
2022/05/12 09:06:49;;;;;;;15.18;11.13;;;;;;;18.00;53.54;101849.84;5074128;28;20120;-75
2022/05/12 09:09:23;;;;;;;16.08;10.38;;;;;;;17.80;53.45;101865.56;5072619;28;20029;-75
2022/05/12 09:12:04;;;;;;;11.70;7.75;;;;;;;17.70;53.41;101866.81;5075910;28;20073;-75
2022/05/12 09:15:08;;;;;;;12.13;7.72;;;;;;;17.52;55.12;101856.00;5084459;28;20043;-75
2022/05/12 09:17:42;;;;;;;14.30;8.30;;;;;;;17.23;53.58;101861.44;4988492;28;20034;-75
2022/05/12 09:20:09;;;;;;;13.55;8.60;;;;;;;17.07;51.56;101864.63;5069282;28;20559;-75
2022/05/12 09:22:35;;;;;;;11.50;7.97;;;;;;;17.14;50.58;101857.38;5086311;28;20073;-75
2022/05/12 09:25:01;;;;;;;12.02;8.07;;;;;;;17.70;51.03;101861.53;5079384;28;20020;-75
2022/05/12 09:27:33;;;;;;;11.15;8.45;;;;;;;17.88;51.18;101854.72;5081640;28;20024;-75
2022/05/12 09:29:59;;;;;;;12.23;10.10;;;;;;;18.08;47.77;101853.97;5078706;28;20024;-75
2022/05/12 09:32:31;;;;;;;14.27;9.57;;;;;;;18.21;47.38;101858.72;5086318;28;20035;-76
2022/05/12 09:35:02;;;;;;;12.93;7.47;;;;;;;18.53;46.82;101853.06;5083996;28;20032;-75
2022/05/12 09:37:28;;;;;;;15.68;8.48;;;;;;;18.71;48.31;101857.59;5082459;28;20028;-75
2022/05/12 09:39:56;;;;;;;12.75;7.53;;;;;;;18.60;49.18;101857.16;5071995;28;20397;-74
2022/05/12 09:42:27;;;;;;;9.77;6.97;;;;;;;18.29;49.67;101855.78;5086500;28;20032;-75
2022/05/12 09:45:21;;;;;;;12.13;7.40;;;;;;;18.13;50.13;101855.50;5081630;28;20499;-76
2022/05/12 09:47:47;;;;;;;15.68;8.10;;;;;;;17.95;48.34;101854.47;5084745;28;20043;-76
2022/05/12 09:50:22;;;;;;;12.10;7.88;;;;;;;17.86;50.26;101848.66;5081234;28;20029;-75
2022/05/12 09:53:03;;;;;;;11.65;7.70;;;;;;;18.01;50.36;101851.56;5072871;28;20107;-76
2022/05/12 09:55:36;;;;;;;9.63;6.50;;;;;;;18.17;48.18;101845.69;5072350;28;20074;-76
2022/05/12 09:58:14;;;;;;;10.60;5.65;;;;;;;18.25;48.85;101844.47;5091379;28;20035;-76
2022/05/12 10:00:41;;;;;;;10.82;5.38;;;;;;;18.45;47.45;101843.69;5082359;28;20480;-75
2022/05/12 10:09:07;;;;;;;8.80;4.85;;;;;;;19.59;45.32;101831.75;5074615;28;20043;-76
2022/05/12 10:11:45;;;;;;;;;;;;;;;20.09;46.98;101846.25;5076522;28;20055;-76
2022/05/12 10:14:22;;;;;;;7.07;4.85;;;;;;;20.59;42.63;101848.25;5079914;28;19916;-76
2022/05/12 10:16:50;;;;;;;7.13;5.32;;;;;;;20.73;39.25;101848.44;5071277;28;20020;-76
2022/05/12 10:19:22;;;;;;;9.25;4.65;;;;;;;20.83;39.89;101840.00;5084923;28;20465;-76
2022/05/12 10:22:05;;;;;;;7.25;4.28;;;;;;;21.17;40.41;101847.94;5077343;28;20047;-77
2022/05/12 10:24:50;;;;;;;9.50;4.28;;;;;;;21.26;40.10;101854.59;5072932;28;20044;-77
2022/05/12 10:27:34;;;;;;;15.43;5.53;;;;;;;21.51;41.30;101846.19;5078086;28;20023;-77
2022/05/12 10:30:14;;;;;;;7.68;4.85;;;;;;;21.92;41.07;101845.75;5081092;28;20047;-77
2022/05/12 10:33:01;;;;;;;11.07;5.75;;;;;;;22.31;37.84;101839.19;5075373;28;20126;-77
2022/05/12 10:35:38;;;;;;;10.50;5.80;;;;;;;22.37;38.34;101844.16;5080198;28;20035;-77
2022/05/12 10:38:09;;;;;;;9.20;5.68;;;;;;;22.00;39.22;101840.00;5092278;28;20039;-77
2022/05/12 10:40:50;;;;;;;7.25;4.82;;;;;;;21.66;41.39;101836.56;5091220;28;20072;-77
2022/05/12 10:43:46;;;;;;;10.38;4.82;;;;;;;21.16;40.45;101838.28;5091848;28;20032;-77
2022/05/12 10:46:21;;;;;;;6.78;4.00;;;;;;;20.59;40.27;101837.66;5090337;28;20036;-77
2022/05/12 10:49:05;;;;;;;10.50;4.28;;;;;;;20.21;41.18;101848.31;5091174;28;20115;-77
2022/05/12 10:51:52;;;;;;;12.45;4.80;;;;;;;20.04;40.83;101848.25;5091475;28;20445;-77
2022/05/12 10:54:22;;;;;;;8.10;4.25;;;;;;;20.00;40.05;101834.28;5076464;28;20153;-77
2022/05/12 10:56:48;;;;;;;10.23;4.82;;;;;;;20.10;41.71;101847.94;5070934;28;20051;-77
2022/05/12 10:59:25;;;;;;;10.20;4.13;;;;;;;20.11;39.68;101845.25;5071546;28;20508;-77
2022/05/12 11:02:01;;;;;;;6.57;4.40;;;;;;;20.25;40.04;101846.38;5086495;28;20040;-77
2022/05/12 11:04:32;;;;;;;7.65;4.97;;;;;;;20.32;38.78;101838.06;5073560;28;20059;-74
2022/05/12 11:07:04;;;;;;;7.75;5.30;;;;;;;20.27;40.37;101828.59;5077054;28;20104;-74
2022/05/12 11:09:33;;;;;;;9.07;5.40;;;;;;;20.89;39.94;101831.75;5079531;28;20579;-74
2022/05/12 11:12:08;;;;;;;10.13;6.30;;;;;;;21.62;37.70;101822.59;5082982;28;20028;-74
2022/05/12 11:14:40;;;;;;;6.85;6.15;;;;;;;21.91;34.64;101834.28;5071132;28;20110;-74
2022/05/12 11:17:18;;;;;;;7.07;5.03;;;;;;;22.00;36.52;101832.91;5070839;28;20032;-74
2022/05/12 11:19:51;;;;;;;5.93;4.90;;;;;;;21.64;36.64;101820.72;5071990;28;20090;-74
2022/05/12 11:22:40;;;;;;;7.22;5.22;;;;;;;21.43;37.26;101830.69;5072838;28;20028;-74
2022/05/12 11:25:27;;;;;;;7.22;4.70;;;;;;;21.74;38.35;101821.94;5074899;28;20503;-74
2022/05/12 11:31:14;;;;;;;5.97;5.10;;;;;;;22.13;36.46;101823.28;5091796;28;20122;-74
2022/05/12 11:33:44;;;;;;;12.45;4.80;;;;;;;21.94;36.30;101830.59;5095279;28;20035;-74
2022/05/12 11:36:11;;;;;;;8.75;4.38;;;;;;;21.57;37.45;101822.00;5094178;28;20032;-74
2022/05/12 11:38:37;;;;;;;6.70;3.90;;;;;;;21.60;35.40;101823.63;5089716;28;20051;-73
2022/05/12 11:41:02;;;;;;;8.27;3.92;;;;;;;22.11;36.09;101819.03;5093350;28;20036;-74
2022/05/12 11:46:32;;;;;;;9.18;4.05;;;;;;;22.84;33.63;101811.28;5093267;28;20081;-74